sensor_id;sensor_type;location;lat;lon;timestamp;P1;durP1;ratioP1;P2;durP2;ratioP2
29984;SDS011;17387;42.690;23.328;2022-11-04T00:01:23;33.97;;;16.23;;
29984;SDS011;17387;42.690;23.328;2022-11-04T00:03:48;29.20;;;15.38;;
29984;SDS011;17387;42.690;23.328;2022-11-04T00:06:14;33.55;;;15.77;;
29984;SDS011;17387;42.690;23.328;2022-11-04T00:08:39;32.25;;;15.13;;
29984;SDS011;17387;42.690;23.328;2022-11-04T00:11:05;33.70;;;16.30;;
29984;SDS011;17387;42.690;23.328;2022-11-04T00:13:49;32.88;;;15.00;;
29984;SDS011;17387;42.690;23.328;2022-11-04T00:16:14;32.03;;;15.30;;
29984;SDS011;17387;42.690;23.328;2022-11-04T00:18:59;31.40;;;15.90;;
29984;SDS011;17387;42.690;23.328;2022-11-04T00:21:25;30.08;;;15.40;;
29984;SDS011;17387;42.690;23.328;2022-11-04T00:24:12;33.70;;;15.95;;
29984;SDS011;17387;42.690;23.328;2022-11-04T00:26:57;35.28;;;15.25;;
29984;SDS011;17387;42.690;23.328;2022-11-04T00:29:42;32.45;;;16.10;;
29984;SDS011;17387;42.690;23.328;2022-11-04T00:32:07;42.22;;;16.00;;
29984;SDS011;17387;42.690;23.328;2022-11-04T00:34:52;30.23;;;15.70;;
29984;SDS011;17387;42.690;23.328;2022-11-04T00:37:18;39.80;;;15.85;;
29984;SDS011;17387;42.690;23.328;2022-11-04T00:39:44;34.38;;;15.73;;
29984;SDS011;17387;42.690;23.328;2022-11-04T00:42:09;32.78;;;15.63;;
29984;SDS011;17387;42.690;23.328;2022-11-04T00:44:35;30.33;;;14.95;;
29984;SDS011;17387;42.690;23.328;2022-11-04T00:47:00;37.33;;;16.02;;
29984;SDS011;17387;42.690;23.328;2022-11-04T00:49:26;32.28;;;15.23;;
29984;SDS011;17387;42.690;23.328;2022-11-04T00:51:51;33.08;;;15.98;;
29984;SDS011;17387;42.690;23.328;2022-11-04T00:54:16;39.20;;;15.38;;
29984;SDS011;17387;42.690;23.328;2022-11-04T00:56:42;35.80;;;15.07;;
29984;SDS011;17387;42.690;23.328;2022-11-04T00:59:07;31.90;;;15.40;;
29984;SDS011;17387;42.690;23.328;2022-11-04T01:01:34;29.25;;;15.43;;
29984;SDS011;17387;42.690;23.328;2022-11-04T01:04:00;32.97;;;15.15;;
29984;SDS011;17387;42.690;23.328;2022-11-04T01:06:25;30.25;;;14.30;;
29984;SDS011;17387;42.690;23.328;2022-11-04T01:08:58;37.10;;;15.10;;
29984;SDS011;17387;42.690;23.328;2022-11-04T01:11:25;31.63;;;16.13;;
29984;SDS011;17387;42.690;23.328;2022-11-04T01:13:55;33.33;;;15.70;;
29984;SDS011;17387;42.690;23.328;2022-11-04T01:16:21;32.22;;;15.50;;
29984;SDS011;17387;42.690;23.328;2022-11-04T01:18:48;32.22;;;15.25;;
29984;SDS011;17387;42.690;23.328;2022-11-04T01:21:14;35.22;;;15.13;;
29984;SDS011;17387;42.690;23.328;2022-11-04T01:23:41;31.60;;;15.95;;
29984;SDS011;17387;42.690;23.328;2022-11-04T01:26:09;32.53;;;15.88;;
29984;SDS011;17387;42.690;23.328;2022-11-04T01:28:37;37.33;;;15.35;;
29984;SDS011;17387;42.690;23.328;2022-11-04T01:31:10;29.70;;;14.95;;
29984;SDS011;17387;42.690;23.328;2022-11-04T01:33:37;33.78;;;14.88;;
29984;SDS011;17387;42.690;23.328;2022-11-04T01:36:02;33.05;;;15.48;;
29984;SDS011;17387;42.690;23.328;2022-11-04T01:38:29;31.10;;;15.50;;
29984;SDS011;17387;42.690;23.328;2022-11-04T01:40:54;33.72;;;15.82;;
29984;SDS011;17387;42.690;23.328;2022-11-04T01:43:21;32.03;;;14.93;;
29984;SDS011;17387;42.690;23.328;2022-11-04T01:45:51;27.52;;;15.52;;
29984;SDS011;17387;42.690;23.328;2022-11-04T01:48:26;31.75;;;14.88;;
29984;SDS011;17387;42.690;23.328;2022-11-04T01:50:55;33.97;;;15.18;;
29984;SDS011;17387;42.690;23.328;2022-11-04T01:53:34;40.83;;;15.82;;
29984;SDS011;17387;42.690;23.328;2022-11-04T01:56:07;32.00;;;15.57;;
29984;SDS011;17387;42.690;23.328;2022-11-04T01:58:38;37.90;;;15.38;;
29984;SDS011;17387;42.690;23.328;2022-11-04T02:01:08;30.48;;;15.07;;
29984;SDS011;17387;42.690;23.328;2022-11-04T02:03:37;35.90;;;15.43;;
29984;SDS011;17387;42.690;23.328;2022-11-04T02:06:11;34.75;;;15.32;;
29984;SDS011;17387;42.690;23.328;2022-11-04T02:08:37;40.78;;;16.52;;
29984;SDS011;17387;42.690;23.328;2022-11-04T02:11:05;34.90;;;16.02;;
29984;SDS011;17387;42.690;23.328;2022-11-04T02:13:31;33.45;;;16.88;;
29984;SDS011;17387;42.690;23.328;2022-11-04T02:16:14;33.33;;;15.82;;
29984;SDS011;17387;42.690;23.328;2022-11-04T02:31:50;30.73;;;18.25;;
29984;SDS011;17387;42.690;23.328;2022-11-04T02:37:16;31.15;;;17.55;;
29984;SDS011;17387;42.690;23.328;2022-11-04T02:40:17;32.75;;;18.05;;
29984;SDS011;17387;42.690;23.328;2022-11-04T02:45:37;35.58;;;16.52;;
29984;SDS011;17387;42.690;23.328;2022-11-04T02:48:26;34.55;;;16.38;;
29984;SDS011;17387;42.690;23.328;2022-11-04T02:51:03;37.97;;;16.50;;
29984;SDS011;17387;42.690;23.328;2022-11-04T02:56:09;35.10;;;17.42;;
29984;SDS011;17387;42.690;23.328;2022-11-04T02:58:39;37.10;;;18.50;;
29984;SDS011;17387;42.690;23.328;2022-11-04T03:01:10;38.08;;;17.83;;
29984;SDS011;17387;42.690;23.328;2022-11-04T03:03:41;31.42;;;18.38;;
29984;SDS011;17387;42.690;23.328;2022-11-04T03:06:13;35.30;;;18.08;;
29984;SDS011;17387;42.690;23.328;2022-11-04T03:08:44;33.78;;;17.85;;
29984;SDS011;17387;42.690;23.328;2022-11-04T03:11:14;42.10;;;19.10;;
29984;SDS011;17387;42.690;23.328;2022-11-04T03:16:46;35.25;;;19.10;;
29984;SDS011;17387;42.690;23.328;2022-11-04T03:24:35;36.00;;;16.90;;
29984;SDS011;17387;42.690;23.328;2022-11-04T03:29:49;33.72;;;17.13;;
29984;SDS011;17387;42.690;23.328;2022-11-04T03:35:20;33.40;;;17.48;;
29984;SDS011;17387;42.690;23.328;2022-11-04T03:37:46;38.00;;;17.05;;
29984;SDS011;17387;42.690;23.328;2022-11-04T03:40:13;37.22;;;17.67;;
29984;SDS011;17387;42.690;23.328;2022-11-04T03:42:44;32.33;;;17.65;;
29984;SDS011;17387;42.690;23.328;2022-11-04T03:45:12;33.95;;;19.50;;
29984;SDS011;17387;42.690;23.328;2022-11-04T03:47:38;35.17;;;18.92;;
29984;SDS011;17387;42.690;23.328;2022-11-04T03:50:17;37.38;;;19.55;;
29984;SDS011;17387;42.690;23.328;2022-11-04T03:52:50;40.58;;;20.13;;
29984;SDS011;17387;42.690;23.328;2022-11-04T03:55:15;39.50;;;20.00;;
29984;SDS011;17387;42.690;23.328;2022-11-04T04:00:42;39.83;;;20.40;;
29984;SDS011;17387;42.690;23.328;2022-11-04T04:03:20;36.55;;;18.45;;
29984;SDS011;17387;42.690;23.328;2022-11-04T04:05:53;38.08;;;18.15;;
29984;SDS011;17387;42.690;23.328;2022-11-04T04:16:31;37.85;;;18.27;;
29984;SDS011;17387;42.690;23.328;2022-11-04T04:21:27;33.45;;;18.13;;
29984;SDS011;17387;42.690;23.328;2022-11-04T04:23:56;36.20;;;18.67;;
29984;SDS011;17387;42.690;23.328;2022-11-04T04:26:43;33.20;;;19.50;;
29984;SDS011;17387;42.690;23.328;2022-11-04T04:29:31;36.40;;;18.98;;
29984;SDS011;17387;42.690;23.328;2022-11-04T04:31:57;39.38;;;19.15;;
29984;SDS011;17387;42.690;23.328;2022-11-04T04:34:25;38.42;;;18.63;;
29984;SDS011;17387;42.690;23.328;2022-11-04T04:39:23;37.58;;;19.42;;
29984;SDS011;17387;42.690;23.328;2022-11-04T04:42:14;37.15;;;20.55;;
29984;SDS011;17387;42.690;23.328;2022-11-04T04:44:57;34.53;;;19.25;;
29984;SDS011;17387;42.690;23.328;2022-11-04T04:47:38;37.25;;;19.55;;
29984;SDS011;17387;42.690;23.328;2022-11-04T04:50:07;36.33;;;19.63;;
29984;SDS011;17387;42.690;23.328;2022-11-04T04:52:36;36.53;;;19.20;;
29984;SDS011;17387;42.690;23.328;2022-11-04T04:55:07;38.08;;;20.02;;
29984;SDS011;17387;42.690;23.328;2022-11-04T04:57:33;38.15;;;20.60;;
29984;SDS011;17387;42.690;23.328;2022-11-04T04:59:58;38.45;;;19.70;;
29984;SDS011;17387;42.690;23.328;2022-11-04T05:02:24;38.70;;;19.95;;
29984;SDS011;17387;42.690;23.328;2022-11-04T05:04:49;37.40;;;20.85;;
29984;SDS011;17387;42.690;23.328;2022-11-04T05:07:15;42.53;;;21.10;;
29984;SDS011;17387;42.690;23.328;2022-11-04T05:09:40;43.72;;;22.88;;
29984;SDS011;17387;42.690;23.328;2022-11-04T05:12:06;40.83;;;21.42;;
29984;SDS011;17387;42.690;23.328;2022-11-04T05:14:31;40.78;;;22.13;;
29984;SDS011;17387;42.690;23.328;2022-11-04T05:16:57;35.13;;;22.25;;
29984;SDS011;17387;42.690;23.328;2022-11-04T05:19:23;40.92;;;22.38;;
29984;SDS011;17387;42.690;23.328;2022-11-04T05:21:49;43.17;;;23.67;;
29984;SDS011;17387;42.690;23.328;2022-11-04T05:24:15;37.80;;;22.00;;
29984;SDS011;17387;42.690;23.328;2022-11-04T05:26:40;42.33;;;22.35;;
29984;SDS011;17387;42.690;23.328;2022-11-04T05:29:06;36.83;;;21.30;;
29984;SDS011;17387;42.690;23.328;2022-11-04T05:31:31;41.70;;;22.63;;
29984;SDS011;17387;42.690;23.328;2022-11-04T05:33:57;46.35;;;23.50;;
29984;SDS011;17387;42.690;23.328;2022-11-04T05:36:23;45.08;;;23.00;;
29984;SDS011;17387;42.690;23.328;2022-11-04T05:38:49;47.25;;;26.58;;
29984;SDS011;17387;42.690;23.328;2022-11-04T05:41:16;44.80;;;24.13;;
29984;SDS011;17387;42.690;23.328;2022-11-04T05:43:56;44.00;;;25.17;;
29984;SDS011;17387;42.690;23.328;2022-11-04T05:46:23;45.75;;;25.77;;
29984;SDS011;17387;42.690;23.328;2022-11-04T05:48:49;47.97;;;25.90;;
29984;SDS011;17387;42.690;23.328;2022-11-04T05:51:15;43.30;;;25.45;;
29984;SDS011;17387;42.690;23.328;2022-11-04T05:53:42;44.70;;;25.33;;
29984;SDS011;17387;42.690;23.328;2022-11-04T05:56:08;49.03;;;26.35;;
29984;SDS011;17387;42.690;23.328;2022-11-04T05:58:33;47.67;;;25.55;;
29984;SDS011;17387;42.690;23.328;2022-11-04T06:03:56;48.50;;;26.95;;
29984;SDS011;17387;42.690;23.328;2022-11-04T06:06:22;50.10;;;28.15;;
29984;SDS011;17387;42.690;23.328;2022-11-04T06:08:49;50.00;;;28.55;;
29984;SDS011;17387;42.690;23.328;2022-11-04T06:11:15;44.70;;;26.48;;
29984;SDS011;17387;42.690;23.328;2022-11-04T06:13:41;50.00;;;28.33;;
29984;SDS011;17387;42.690;23.328;2022-11-04T06:16:06;50.50;;;28.33;;
29984;SDS011;17387;42.690;23.328;2022-11-04T06:18:31;54.72;;;28.17;;
29984;SDS011;17387;42.690;23.328;2022-11-04T06:21:20;56.13;;;29.75;;
29984;SDS011;17387;42.690;23.328;2022-11-04T06:23:51;50.78;;;28.17;;
29984;SDS011;17387;42.690;23.328;2022-11-04T06:26:18;49.83;;;28.58;;
29984;SDS011;17387;42.690;23.328;2022-11-04T06:28:44;46.42;;;29.30;;
29984;SDS011;17387;42.690;23.328;2022-11-04T06:31:10;51.72;;;28.30;;
29984;SDS011;17387;42.690;23.328;2022-11-04T06:33:37;46.17;;;27.98;;
29984;SDS011;17387;42.690;23.328;2022-11-04T06:36:03;48.15;;;27.92;;
29984;SDS011;17387;42.690;23.328;2022-11-04T06:38:32;50.72;;;29.42;;
29984;SDS011;17387;42.690;23.328;2022-11-04T06:40:59;48.63;;;27.80;;
29984;SDS011;17387;42.690;23.328;2022-11-04T06:43:24;51.80;;;28.75;;
29984;SDS011;17387;42.690;23.328;2022-11-04T06:45:53;48.20;;;28.75;;
29984;SDS011;17387;42.690;23.328;2022-11-04T06:48:19;46.45;;;29.02;;
29984;SDS011;17387;42.690;23.328;2022-11-04T06:50:44;51.97;;;29.48;;
29984;SDS011;17387;42.690;23.328;2022-11-04T06:53:10;53.03;;;30.15;;
29984;SDS011;17387;42.690;23.328;2022-11-04T06:55:35;55.85;;;31.13;;
29984;SDS011;17387;42.690;23.328;2022-11-04T06:58:00;49.45;;;30.10;;
29984;SDS011;17387;42.690;23.328;2022-11-04T07:00:26;53.25;;;29.55;;
29984;SDS011;17387;42.690;23.328;2022-11-04T07:02:51;54.75;;;32.13;;
29984;SDS011;17387;42.690;23.328;2022-11-04T07:05:16;52.03;;;30.85;;
29984;SDS011;17387;42.690;23.328;2022-11-04T07:07:42;53.38;;;31.20;;
29984;SDS011;17387;42.690;23.328;2022-11-04T07:10:07;52.25;;;31.38;;
29984;SDS011;17387;42.690;23.328;2022-11-04T07:12:33;53.13;;;31.52;;
29984;SDS011;17387;42.690;23.328;2022-11-04T07:14:58;58.75;;;33.17;;
29984;SDS011;17387;42.690;23.328;2022-11-04T07:17:24;52.38;;;32.13;;
29984;SDS011;17387;42.690;23.328;2022-11-04T07:19:49;56.55;;;33.63;;
29984;SDS011;17387;42.690;23.328;2022-11-04T07:22:15;57.85;;;32.20;;
29984;SDS011;17387;42.690;23.328;2022-11-04T07:24:40;55.95;;;33.47;;
29984;SDS011;17387;42.690;23.328;2022-11-04T07:27:05;54.33;;;32.65;;
29984;SDS011;17387;42.690;23.328;2022-11-04T07:29:31;71.15;;;33.40;;
29984;SDS011;17387;42.690;23.328;2022-11-04T07:31:57;59.15;;;33.88;;
29984;SDS011;17387;42.690;23.328;2022-11-04T07:34:23;56.15;;;32.45;;
29984;SDS011;17387;42.690;23.328;2022-11-04T07:36:48;61.40;;;32.70;;
29984;SDS011;17387;42.690;23.328;2022-11-04T07:39:13;54.28;;;32.67;;
29984;SDS011;17387;42.690;23.328;2022-11-04T07:41:39;53.53;;;30.90;;
29984;SDS011;17387;42.690;23.328;2022-11-04T07:44:04;51.85;;;32.70;;
29984;SDS011;17387;42.690;23.328;2022-11-04T07:46:33;47.67;;;31.13;;
29984;SDS011;17387;42.690;23.328;2022-11-04T07:48:58;59.20;;;31.92;;
29984;SDS011;17387;42.690;23.328;2022-11-04T07:51:24;57.90;;;31.05;;
29984;SDS011;17387;42.690;23.328;2022-11-04T07:53:50;52.15;;;30.08;;
29984;SDS011;17387;42.690;23.328;2022-11-04T07:56:17;55.97;;;31.15;;
29984;SDS011;17387;42.690;23.328;2022-11-04T07:58:43;49.35;;;29.58;;
29984;SDS011;17387;42.690;23.328;2022-11-04T08:01:10;52.97;;;29.55;;
29984;SDS011;17387;42.690;23.328;2022-11-04T08:03:38;51.58;;;30.05;;
29984;SDS011;17387;42.690;23.328;2022-11-04T08:06:05;50.42;;;29.27;;
29984;SDS011;17387;42.690;23.328;2022-11-04T08:08:31;50.05;;;29.25;;
29984;SDS011;17387;42.690;23.328;2022-11-04T08:10:59;52.53;;;30.20;;
29984;SDS011;17387;42.690;23.328;2022-11-04T08:13:30;55.15;;;32.15;;
29984;SDS011;17387;42.690;23.328;2022-11-04T08:16:00;52.42;;;29.02;;
29984;SDS011;17387;42.690;23.328;2022-11-04T08:18:30;52.83;;;29.67;;
29984;SDS011;17387;42.690;23.328;2022-11-04T08:20:57;52.85;;;30.08;;
29984;SDS011;17387;42.690;23.328;2022-11-04T08:23:23;54.70;;;30.63;;
29984;SDS011;17387;42.690;23.328;2022-11-04T08:25:48;47.92;;;29.65;;
29984;SDS011;17387;42.690;23.328;2022-11-04T08:28:14;52.78;;;28.88;;
29984;SDS011;17387;42.690;23.328;2022-11-04T08:30:55;54.28;;;30.67;;
29984;SDS011;17387;42.690;23.328;2022-11-04T08:33:27;51.03;;;29.45;;
29984;SDS011;17387;42.690;23.328;2022-11-04T08:35:54;55.95;;;31.20;;
29984;SDS011;17387;42.690;23.328;2022-11-04T08:38:23;50.08;;;28.95;;
29984;SDS011;17387;42.690;23.328;2022-11-04T08:40:49;52.70;;;27.90;;
29984;SDS011;17387;42.690;23.328;2022-11-04T08:43:14;46.53;;;27.85;;
29984;SDS011;17387;42.690;23.328;2022-11-04T08:45:40;47.92;;;28.77;;
29984;SDS011;17387;42.690;23.328;2022-11-04T08:48:07;51.28;;;29.15;;
29984;SDS011;17387;42.690;23.328;2022-11-04T08:50:33;46.58;;;28.67;;
29984;SDS011;17387;42.690;23.328;2022-11-04T08:52:59;48.88;;;27.40;;
29984;SDS011;17387;42.690;23.328;2022-11-04T08:55:27;54.63;;;28.88;;
29984;SDS011;17387;42.690;23.328;2022-11-04T08:57:52;46.92;;;27.42;;
29984;SDS011;17387;42.690;23.328;2022-11-04T09:00:18;50.17;;;27.08;;
29984;SDS011;17387;42.690;23.328;2022-11-04T09:02:44;39.58;;;24.88;;
29984;SDS011;17387;42.690;23.328;2022-11-04T09:05:10;45.83;;;25.30;;
29984;SDS011;17387;42.690;23.328;2022-11-04T09:07:35;50.58;;;27.83;;
29984;SDS011;17387;42.690;23.328;2022-11-04T09:10:01;53.65;;;28.02;;
29984;SDS011;17387;42.690;23.328;2022-11-04T09:12:27;51.63;;;27.35;;
29984;SDS011;17387;42.690;23.328;2022-11-04T09:14:53;47.15;;;25.85;;
29984;SDS011;17387;42.690;23.328;2022-11-04T09:17:18;42.50;;;26.20;;
29984;SDS011;17387;42.690;23.328;2022-11-04T09:19:43;44.17;;;26.67;;
29984;SDS011;17387;42.690;23.328;2022-11-04T09:22:09;50.20;;;27.65;;
29984;SDS011;17387;42.690;23.328;2022-11-04T09:24:34;48.78;;;27.60;;
29984;SDS011;17387;42.690;23.328;2022-11-04T09:27:00;48.05;;;25.95;;
29984;SDS011;17387;42.690;23.328;2022-11-04T09:29:25;45.25;;;26.73;;
29984;SDS011;17387;42.690;23.328;2022-11-04T09:31:50;46.95;;;27.02;;
29984;SDS011;17387;42.690;23.328;2022-11-04T09:34:16;49.80;;;27.33;;
29984;SDS011;17387;42.690;23.328;2022-11-04T09:36:42;47.25;;;27.00;;
29984;SDS011;17387;42.690;23.328;2022-11-04T09:39:08;51.40;;;27.08;;
29984;SDS011;17387;42.690;23.328;2022-11-04T09:41:45;68.63;;;33.70;;
29984;SDS011;17387;42.690;23.328;2022-11-04T09:44:27;45.35;;;27.30;;
29984;SDS011;17387;42.690;23.328;2022-11-04T09:47:12;45.67;;;26.60;;
29984;SDS011;17387;42.690;23.328;2022-11-04T09:49:38;45.80;;;25.77;;
29984;SDS011;17387;42.690;23.328;2022-11-04T09:52:23;36.45;;;23.92;;
29984;SDS011;17387;42.690;23.328;2022-11-04T09:55:15;61.85;;;38.47;;
29984;SDS011;17387;42.690;23.328;2022-11-04T09:58:01;44.30;;;25.38;;
29984;SDS011;17387;42.690;23.328;2022-11-04T10:00:29;49.40;;;26.05;;
29984;SDS011;17387;42.690;23.328;2022-11-04T10:05:31;45.58;;;24.38;;
29984;SDS011;17387;42.690;23.328;2022-11-04T10:10:52;43.90;;;25.33;;
29984;SDS011;17387;42.690;23.328;2022-11-04T10:22:00;41.15;;;24.52;;
29984;SDS011;17387;42.690;23.328;2022-11-04T10:27:04;35.88;;;21.77;;
29984;SDS011;17387;42.690;23.328;2022-11-04T10:29:38;36.42;;;21.55;;
29984;SDS011;17387;42.690;23.328;2022-11-04T10:32:12;30.57;;;18.07;;
29984;SDS011;17387;42.690;23.328;2022-11-04T10:34:45;31.38;;;19.70;;
29984;SDS011;17387;42.690;23.328;2022-11-04T10:37:12;34.75;;;20.10;;
29984;SDS011;17387;42.690;23.328;2022-11-04T10:39:42;27.70;;;17.13;;
29984;SDS011;17387;42.690;23.328;2022-11-04T10:42:13;39.45;;;19.83;;
29984;SDS011;17387;42.690;23.328;2022-11-04T10:44:43;31.33;;;16.55;;
29984;SDS011;17387;42.690;23.328;2022-11-04T10:52:46;35.25;;;19.42;;
29984;SDS011;17387;42.690;23.328;2022-11-04T10:55:34;31.75;;;18.73;;
29984;SDS011;17387;42.690;23.328;2022-11-04T10:58:06;37.00;;;18.63;;
29984;SDS011;17387;42.690;23.328;2022-11-04T11:00:41;45.00;;;22.58;;
29984;SDS011;17387;42.690;23.328;2022-11-04T11:05:49;62.03;;;21.95;;
29984;SDS011;17387;42.690;23.328;2022-11-04T11:08:26;31.75;;;17.15;;
29984;SDS011;17387;42.690;23.328;2022-11-04T11:10:56;42.47;;;19.85;;
29984;SDS011;17387;42.690;23.328;2022-11-04T11:13:23;37.17;;;20.70;;
29984;SDS011;17387;42.690;23.328;2022-11-04T11:18:42;34.17;;;21.00;;
29984;SDS011;17387;42.690;23.328;2022-11-04T11:21:11;41.33;;;23.33;;
29984;SDS011;17387;42.690;23.328;2022-11-04T11:26:15;43.72;;;24.45;;
29984;SDS011;17387;42.690;23.328;2022-11-04T11:28:51;44.20;;;23.52;;
29984;SDS011;17387;42.690;23.328;2022-11-04T11:31:20;33.15;;;18.92;;
29984;SDS011;17387;42.690;23.328;2022-11-04T11:33:58;30.80;;;19.52;;
29984;SDS011;17387;42.690;23.328;2022-11-04T11:36:29;35.70;;;19.35;;
29984;SDS011;17387;42.690;23.328;2022-11-04T11:39:15;34.28;;;18.60;;
29984;SDS011;17387;42.690;23.328;2022-11-04T11:46:55;25.25;;;14.20;;
29984;SDS011;17387;42.690;23.328;2022-11-04T11:49:26;39.97;;;19.90;;
29984;SDS011;17387;42.690;23.328;2022-11-04T11:51:54;35.55;;;18.38;;
29984;SDS011;17387;42.690;23.328;2022-11-04T11:54:31;34.17;;;17.92;;
29984;SDS011;17387;42.690;23.328;2022-11-04T11:57:01;29.05;;;17.02;;
29984;SDS011;17387;42.690;23.328;2022-11-04T12:02:11;34.97;;;20.30;;
29984;SDS011;17387;42.690;23.328;2022-11-04T12:04:41;38.30;;;19.05;;
29984;SDS011;17387;42.690;23.328;2022-11-04T12:20:40;54.28;;;36.58;;
29984;SDS011;17387;42.690;23.328;2022-11-04T12:23:19;42.28;;;20.58;;
29984;SDS011;17387;42.690;23.328;2022-11-04T12:25:54;35.05;;;19.08;;
29984;SDS011;17387;42.690;23.328;2022-11-04T12:52:52;28.63;;;16.65;;
29984;SDS011;17387;42.690;23.328;2022-11-04T12:55:43;27.17;;;17.63;;
29984;SDS011;17387;42.690;23.328;2022-11-04T13:01:45;33.55;;;19.90;;
29984;SDS011;17387;42.690;23.328;2022-11-04T13:04:11;33.80;;;16.77;;
29984;SDS011;17387;42.690;23.328;2022-11-04T13:06:42;34.08;;;19.95;;
29984;SDS011;17387;42.690;23.328;2022-11-04T13:11:51;37.00;;;19.75;;
29984;SDS011;17387;42.690;23.328;2022-11-04T13:16:53;35.95;;;18.52;;
29984;SDS011;17387;42.690;23.328;2022-11-04T13:19:24;37.97;;;19.48;;
29984;SDS011;17387;42.690;23.328;2022-11-04T13:21:56;30.67;;;15.93;;
29984;SDS011;17387;42.690;23.328;2022-11-04T13:24:29;27.25;;;17.85;;
29984;SDS011;17387;42.690;23.328;2022-11-04T13:26:57;31.80;;;17.30;;
29984;SDS011;17387;42.690;23.328;2022-11-04T13:29:27;30.60;;;17.70;;
29984;SDS011;17387;42.690;23.328;2022-11-04T13:32:01;34.10;;;18.75;;
29984;SDS011;17387;42.690;23.328;2022-11-04T13:34:38;34.50;;;17.52;;
29984;SDS011;17387;42.690;23.328;2022-11-04T13:37:33;29.10;;;16.65;;
29984;SDS011;17387;42.690;23.328;2022-11-04T13:42:44;30.92;;;16.45;;
29984;SDS011;17387;42.690;23.328;2022-11-04T13:48:33;32.05;;;16.15;;
29984;SDS011;17387;42.690;23.328;2022-11-04T13:51:06;32.28;;;17.50;;
29984;SDS011;17387;42.690;23.328;2022-11-04T13:53:52;34.63;;;19.88;;
29984;SDS011;17387;42.690;23.328;2022-11-04T14:04:35;39.28;;;25.00;;
29984;SDS011;17387;42.690;23.328;2022-11-04T14:07:03;33.95;;;20.05;;
29984;SDS011;17387;42.690;23.328;2022-11-04T14:15:01;33.17;;;17.40;;
29984;SDS011;17387;42.690;23.328;2022-11-04T14:22:31;36.20;;;19.33;;
29984;SDS011;17387;42.690;23.328;2022-11-04T14:25:20;36.35;;;20.15;;
29984;SDS011;17387;42.690;23.328;2022-11-04T14:27:58;33.42;;;20.90;;
29984;SDS011;17387;42.690;23.328;2022-11-04T14:41:29;37.13;;;19.63;;
29984;SDS011;17387;42.690;23.328;2022-11-04T14:43:56;54.78;;;23.98;;
29984;SDS011;17387;42.690;23.328;2022-11-04T14:46:25;39.17;;;23.70;;
29984;SDS011;17387;42.690;23.328;2022-11-04T14:48:56;36.38;;;18.38;;
29984;SDS011;17387;42.690;23.328;2022-11-04T14:51:26;50.60;;;24.17;;
29984;SDS011;17387;42.690;23.328;2022-11-04T14:54:03;43.00;;;22.52;;
29984;SDS011;17387;42.690;23.328;2022-11-04T14:56:30;35.28;;;19.02;;
29984;SDS011;17387;42.690;23.328;2022-11-04T14:59:03;36.65;;;20.20;;
29984;SDS011;17387;42.690;23.328;2022-11-04T15:01:31;41.03;;;19.33;;
29984;SDS011;17387;42.690;23.328;2022-11-04T15:04:13;54.38;;;29.40;;
29984;SDS011;17387;42.690;23.328;2022-11-04T15:06:55;41.08;;;20.13;;
29984;SDS011;17387;42.690;23.328;2022-11-04T15:09:23;33.08;;;17.98;;
29984;SDS011;17387;42.690;23.328;2022-11-04T15:11:55;44.03;;;20.05;;
29984;SDS011;17387;42.690;23.328;2022-11-04T15:14:44;39.75;;;19.50;;
29984;SDS011;17387;42.690;23.328;2022-11-04T15:17:10;46.30;;;20.33;;
29984;SDS011;17387;42.690;23.328;2022-11-04T15:19:45;36.92;;;19.25;;
29984;SDS011;17387;42.690;23.328;2022-11-04T15:22:14;38.30;;;19.47;;
29984;SDS011;17387;42.690;23.328;2022-11-04T15:24:41;41.63;;;22.50;;
29984;SDS011;17387;42.690;23.328;2022-11-04T15:27:11;45.33;;;22.38;;
29984;SDS011;17387;42.690;23.328;2022-11-04T15:29:51;42.55;;;21.33;;
29984;SDS011;17387;42.690;23.328;2022-11-04T15:32:20;44.17;;;24.50;;
29984;SDS011;17387;42.690;23.328;2022-11-04T15:34:47;50.00;;;22.52;;
29984;SDS011;17387;42.690;23.328;2022-11-04T15:37:13;53.03;;;29.75;;
29984;SDS011;17387;42.690;23.328;2022-11-04T15:39:44;42.72;;;22.77;;
29984;SDS011;17387;42.690;23.328;2022-11-04T15:42:13;45.25;;;24.50;;
29984;SDS011;17387;42.690;23.328;2022-11-04T15:45:15;46.30;;;26.25;;
29984;SDS011;17387;42.690;23.328;2022-11-04T15:48:19;57.67;;;28.50;;
29984;SDS011;17387;42.690;23.328;2022-11-04T15:56:27;50.25;;;28.98;;
29984;SDS011;17387;42.690;23.328;2022-11-04T15:58:56;45.90;;;25.30;;
29984;SDS011;17387;42.690;23.328;2022-11-04T16:01:24;78.82;;;34.65;;
29984;SDS011;17387;42.690;23.328;2022-11-04T16:03:56;44.88;;;23.40;;
29984;SDS011;17387;42.690;23.328;2022-11-04T16:06:31;44.53;;;23.58;;
29984;SDS011;17387;42.690;23.328;2022-11-04T16:08:59;38.03;;;21.67;;
29984;SDS011;17387;42.690;23.328;2022-11-04T16:11:27;52.53;;;28.98;;
29984;SDS011;17387;42.690;23.328;2022-11-04T16:13:53;38.67;;;22.35;;
29984;SDS011;17387;42.690;23.328;2022-11-04T16:16:38;42.95;;;24.48;;
29984;SDS011;17387;42.690;23.328;2022-11-04T16:19:11;43.38;;;23.42;;
29984;SDS011;17387;42.690;23.328;2022-11-04T16:21:43;46.72;;;25.35;;
29984;SDS011;17387;42.690;23.328;2022-11-04T16:24:25;46.63;;;25.77;;
29984;SDS011;17387;42.690;23.328;2022-11-04T16:26:55;60.75;;;30.08;;
29984;SDS011;17387;42.690;23.328;2022-11-04T16:29:24;52.00;;;25.75;;
29984;SDS011;17387;42.690;23.328;2022-11-04T16:32:30;45.88;;;24.45;;
29984;SDS011;17387;42.690;23.328;2022-11-04T16:35:00;48.08;;;26.00;;
29984;SDS011;17387;42.690;23.328;2022-11-04T16:37:27;44.08;;;23.15;;
29984;SDS011;17387;42.690;23.328;2022-11-04T16:39:52;43.22;;;22.20;;
29984;SDS011;17387;42.690;23.328;2022-11-04T16:42:18;48.53;;;25.27;;
29984;SDS011;17387;42.690;23.328;2022-11-04T16:44:48;44.95;;;24.98;;
29984;SDS011;17387;42.690;23.328;2022-11-04T16:47:15;45.53;;;23.52;;
29984;SDS011;17387;42.690;23.328;2022-11-04T16:49:42;43.72;;;23.92;;
29984;SDS011;17387;42.690;23.328;2022-11-04T16:52:13;52.78;;;27.00;;
29984;SDS011;17387;42.690;23.328;2022-11-04T16:54:46;45.10;;;23.52;;
29984;SDS011;17387;42.690;23.328;2022-11-04T16:57:12;41.25;;;21.75;;
29984;SDS011;17387;42.690;23.328;2022-11-04T16:59:39;37.58;;;19.88;;
29984;SDS011;17387;42.690;23.328;2022-11-04T17:02:13;39.75;;;21.85;;
29984;SDS011;17387;42.690;23.328;2022-11-04T17:04:42;40.28;;;21.15;;
29984;SDS011;17387;42.690;23.328;2022-11-04T17:07:10;46.17;;;25.70;;
29984;SDS011;17387;42.690;23.328;2022-11-04T17:09:35;50.17;;;22.75;;
29984;SDS011;17387;42.690;23.328;2022-11-04T17:12:01;39.20;;;20.55;;
29984;SDS011;17387;42.690;23.328;2022-11-04T17:14:26;43.25;;;23.27;;
29984;SDS011;17387;42.690;23.328;2022-11-04T17:16:51;43.30;;;23.13;;
29984;SDS011;17387;42.690;23.328;2022-11-04T17:19:17;41.00;;;19.92;;
29984;SDS011;17387;42.690;23.328;2022-11-04T17:21:43;44.22;;;22.73;;
29984;SDS011;17387;42.690;23.328;2022-11-04T17:24:09;39.35;;;20.05;;
29984;SDS011;17387;42.690;23.328;2022-11-04T17:26:35;42.03;;;22.50;;